createdAt,value
2018-02-08T17:34:46.347Z,11.50
2018-02-08T17:37:13.237Z,11.40
2018-02-08T17:39:39.509Z,12.50
2018-02-08T17:42:06.019Z,11.80
2018-02-08T17:44:32.243Z,13.43
2018-02-08T18:47:54.370Z,15.97
2018-02-08T18:59:50.312Z,45.83
2018-02-08T19:02:18.644Z,46.07
2018-02-08T19:04:44.892Z,49.70
2018-02-08T19:07:11.400Z,49.27
2018-02-08T19:09:38.440Z,47.47
2018-02-08T19:12:04.664Z,48.27
2018-02-08T19:14:30.904Z,58.50
2018-02-08T19:16:57.161Z,57.10
2018-02-08T19:19:23.417Z,51.87
2018-02-08T19:21:50.510Z,49.27
2018-02-08T19:24:16.816Z,52.50
2018-02-08T19:26:43.864Z,48.87
2018-02-08T19:29:10.128Z,52.27
2018-02-08T19:31:36.373Z,51.67
2018-02-08T19:34:02.696Z,50.63
2018-02-08T19:36:29.721Z,45.50
2018-02-08T19:38:56.025Z,50.90
2018-02-08T19:41:22.307Z,45.77
2018-02-08T19:43:48.837Z,45.87
2018-02-08T19:46:15.098Z,45.43
2018-02-08T19:48:41.416Z,47.47
2018-02-08T19:51:07.787Z,41.47
2018-02-08T19:53:34.037Z,43.83
2018-02-08T19:56:01.098Z,43.40
2018-02-08T19:58:27.356Z,52.37
2018-02-08T20:00:54.349Z,44.53
2018-02-08T20:03:20.617Z,47.67
2018-02-08T20:05:47.172Z,47.63
2018-02-08T20:08:13.452Z,40.20
2018-02-08T20:10:40.461Z,44.50
2018-02-08T20:13:06.746Z,46.37
2018-02-08T20:15:33.769Z,42.00
2018-02-08T20:18:00.045Z,42.10
2018-02-08T20:20:26.313Z,44.40
2018-02-08T20:22:52.613Z,43.57
2018-02-08T20:25:18.897Z,43.10
2018-02-08T20:27:45.191Z,41.43
2018-02-08T20:30:11.483Z,44.10
2018-02-08T20:32:37.737Z,46.27
2018-02-08T20:35:04.337Z,44.63
2018-02-08T20:37:31.397Z,39.60
2018-02-08T20:39:58.445Z,42.70
2018-02-08T20:42:31.464Z,45.57
2018-02-08T20:44:57.745Z,42.37
2018-02-08T20:47:24.053Z,45.93
2018-02-08T20:49:56.378Z,44.63
2018-02-08T20:52:22.622Z,44.70
2018-02-08T20:54:49.603Z,43.10
2018-02-08T20:57:17.249Z,44.83
2018-02-08T20:59:43.504Z,40.83
2018-02-08T21:02:09.789Z,45.40
2018-02-08T21:04:37.209Z,43.47
2018-02-08T21:07:03.477Z,42.33
2018-02-08T21:09:30.450Z,47.40
2018-02-08T21:11:57.475Z,59.33
2018-02-08T21:14:23.732Z,52.17
2018-02-08T21:16:49.991Z,47.53
2018-02-08T21:19:16.293Z,45.63
2018-02-08T21:21:42.607Z,42.43
2018-02-08T21:24:08.951Z,42.70
2018-02-08T21:26:35.887Z,39.90
2018-02-08T21:29:02.157Z,42.83
2018-02-08T21:41:14.239Z,30.07
2018-02-08T21:43:42.247Z,38.40
2018-02-08T21:55:54.281Z,30.53
2018-02-08T21:58:20.797Z,38.43
2018-02-08T22:00:47.047Z,42.80
2018-02-08T22:03:14.289Z,39.83
2018-02-08T22:05:41.267Z,37.33
2018-02-08T22:08:08.551Z,43.50
2018-02-08T22:10:34.858Z,39.60
2018-02-08T22:13:01.835Z,38.70
2018-02-08T22:15:28.117Z,37.97
2018-02-08T22:17:54.419Z,38.33
2018-02-08T22:20:20.691Z,33.90
2018-02-08T22:22:46.945Z,43.90
2018-02-08T22:25:13.207Z,39.87
2018-02-08T22:27:40.203Z,43.57
2018-02-08T22:30:06.446Z,42.33
2018-02-08T22:32:32.987Z,34.87
2018-02-08T22:34:59.259Z,32.97
2018-02-08T22:37:26.411Z,37.83
2018-02-08T22:39:52.697Z,42.83
2018-02-08T22:42:19.711Z,49.13
2018-02-08T22:44:45.965Z,44.00
2018-02-08T22:47:12.267Z,37.83
2018-02-08T22:49:38.560Z,38.13
2018-02-08T22:52:04.817Z,38.10
2018-02-08T22:54:31.835Z,41.70
2018-02-08T23:06:43.869Z,34.63
2018-02-08T23:09:10.871Z,38.17
2018-02-08T23:11:37.131Z,39.63
2018-02-08T23:14:03.441Z,38.67
2018-02-08T23:16:30.420Z,44.57
2018-02-08T23:18:56.757Z,39.00
2018-02-08T23:21:23.715Z,41.93
2018-02-08T23:23:49.956Z,41.10
2018-02-08T23:26:16.245Z,46.50
2018-02-08T23:28:42.537Z,43.03
2018-02-08T23:31:09.527Z,38.67
2018-02-08T23:33:35.787Z,33.20
2018-02-08T23:36:02.349Z,35.43
2018-02-08T23:38:28.593Z,36.37
2018-02-08T23:40:54.843Z,43.40
2018-02-08T23:43:21.875Z,39.87
2018-02-08T23:45:48.135Z,45.43
2018-02-08T23:48:14.385Z,45.27
2018-02-08T23:50:40.917Z,46.47
2018-02-08T23:53:07.187Z,46.47
2018-02-08T23:55:34.165Z,39.40
2018-02-08T23:58:00.447Z,42.17
